createdAt,value
2018-01-24T00:00:19.962Z,3.80
2018-01-24T00:05:03.243Z,3.60
2018-01-24T00:09:46.587Z,2.83
2018-01-24T00:14:29.946Z,3.00
2018-01-24T00:19:14.300Z,2.80
2018-01-24T00:23:57.636Z,2.57
2018-01-24T00:28:41.752Z,2.93
2018-01-24T00:33:25.054Z,2.93
2018-01-24T00:38:08.476Z,3.10
2018-01-24T00:42:51.781Z,2.70
2018-01-24T00:47:35.101Z,3.10
2018-01-24T00:52:18.426Z,2.67
2018-01-24T00:57:01.730Z,2.50
2018-01-24T01:01:45.070Z,2.60
2018-01-24T01:06:29.182Z,2.77
2018-01-24T01:11:12.490Z,3.37
2018-01-24T01:15:56.552Z,3.07
2018-01-24T01:20:40.627Z,3.03
2018-01-24T01:25:23.918Z,2.60
2018-01-24T01:30:07.314Z,2.63
2018-01-24T01:34:50.648Z,3.03
2018-01-24T01:39:33.952Z,2.87
2018-01-24T01:44:17.993Z,3.10
2018-01-24T01:49:01.316Z,2.70
2018-01-24T01:53:44.648Z,3.30
2018-01-24T01:58:27.943Z,2.40
2018-01-24T02:03:12.041Z,2.80
2018-01-24T02:07:55.362Z,2.73
2018-01-24T02:12:38.645Z,2.67
2018-01-24T02:17:21.949Z,2.97
2018-01-24T02:22:05.282Z,3.30
2018-01-24T02:26:48.615Z,2.60
2018-01-24T02:31:31.977Z,2.60
2018-01-24T02:36:15.317Z,2.90
2018-01-24T02:40:58.668Z,3.03
2018-01-24T02:45:42.017Z,2.60
2018-01-24T02:50:25.397Z,3.07
2018-01-24T02:55:09.477Z,2.87
2018-01-24T02:59:52.847Z,2.90
2018-01-24T03:04:36.184Z,3.10
2018-01-24T03:09:19.470Z,2.90
2018-01-24T03:14:03.546Z,2.60
2018-01-24T03:18:46.937Z,3.13
2018-01-24T03:23:30.254Z,2.93
2018-01-24T03:28:13.949Z,2.83
2018-01-24T03:32:57.249Z,2.67
2018-01-24T03:37:40.555Z,2.90
2018-01-24T03:42:23.945Z,2.57
2018-01-24T03:47:07.247Z,2.50
2018-01-24T03:51:50.569Z,2.53
2018-01-24T03:56:34.645Z,2.57
2018-01-24T04:01:17.958Z,2.33
2018-01-24T04:06:02.378Z,2.83
2018-01-24T04:10:45.676Z,3.57
2018-01-24T04:15:29.880Z,3.50
2018-01-24T04:20:13.198Z,2.90
2018-01-24T04:24:56.534Z,3.20
2018-01-24T04:29:39.886Z,3.00
2018-01-24T04:34:23.158Z,3.10
2018-01-24T04:39:06.492Z,2.97
2018-01-24T04:43:49.798Z,2.60
2018-01-24T04:48:33.130Z,3.27
2018-01-24T04:53:16.454Z,2.57
2018-01-24T04:58:00.028Z,2.83
2018-01-24T05:02:43.315Z,2.90
2018-01-24T05:07:26.657Z,2.77
2018-01-24T05:12:10.737Z,3.47
2018-01-24T05:16:54.089Z,3.10
2018-01-24T05:21:38.299Z,3.07
2018-01-24T05:26:21.681Z,2.70
2018-01-24T05:31:04.994Z,2.83
2018-01-24T05:35:49.093Z,2.67
2018-01-24T05:40:32.406Z,3.10
2018-01-24T05:45:15.772Z,3.67
2018-01-24T05:49:59.112Z,3.10
2018-01-24T05:54:42.459Z,3.47
2018-01-24T05:59:25.746Z,3.63
2018-01-24T06:04:09.075Z,3.30
2018-01-24T06:08:52.422Z,4.10
2018-01-24T06:13:35.984Z,2.70
2018-01-24T06:18:19.286Z,2.60
2018-01-24T06:23:02.607Z,2.57
2018-01-24T06:27:45.914Z,2.53
2018-01-24T06:32:29.251Z,2.53
2018-01-24T06:37:12.549Z,2.13
2018-01-24T06:41:55.866Z,2.10
2018-01-24T06:46:39.193Z,2.00
2018-01-24T06:51:22.493Z,1.90
2018-01-24T06:56:06.577Z,1.57
2018-01-24T07:00:49.941Z,1.63
2018-01-24T07:05:33.273Z,1.50
2018-01-24T07:10:16.626Z,1.43
2018-01-24T07:14:59.941Z,1.43
2018-01-24T07:19:43.271Z,1.40
2018-01-24T07:24:26.599Z,1.50
2018-01-24T07:29:09.910Z,1.20
2018-01-24T07:33:53.249Z,1.23
2018-01-24T07:38:36.605Z,1.60
2018-01-24T07:43:19.930Z,1.17
2018-01-24T07:48:03.247Z,1.30
2018-01-24T07:52:46.546Z,1.60
2018-01-24T07:57:30.640Z,1.30
2018-01-24T08:02:13.898Z,1.20
2018-01-24T08:06:57.224Z,1.23
2018-01-24T08:11:40.598Z,1.47
2018-01-24T08:16:23.935Z,1.70
2018-01-24T08:21:08.118Z,1.30
2018-01-24T08:25:52.271Z,1.60
2018-01-24T08:30:35.587Z,1.37
2018-01-24T08:35:18.899Z,1.40
2018-01-24T08:40:02.214Z,1.43
2018-01-24T08:44:45.561Z,1.03
2018-01-24T08:49:28.848Z,1.43
2018-01-24T08:54:12.137Z,1.93
2018-01-24T08:58:55.467Z,1.40
2018-01-24T09:03:38.764Z,1.33
2018-01-24T09:08:22.089Z,1.27
2018-01-24T09:13:05.396Z,1.20
2018-01-24T09:17:48.731Z,1.13
2018-01-24T09:22:32.074Z,1.40
2018-01-24T09:27:15.385Z,1.37
2018-01-24T09:31:59.477Z,1.20
2018-01-24T09:36:42.754Z,1.40
2018-01-24T09:41:26.078Z,1.20
2018-01-24T09:46:09.419Z,1.20
2018-01-24T09:50:52.740Z,1.27
2018-01-24T09:55:36.056Z,1.30
2018-01-24T10:00:20.127Z,1.20
2018-01-24T10:05:03.435Z,1.10
2018-01-24T10:09:47.516Z,0.93
2018-01-24T10:14:31.103Z,1.23
2018-01-24T10:19:14.403Z,1.10
2018-01-24T10:23:57.749Z,1.50
2018-01-24T10:28:41.093Z,0.80
2018-01-24T10:33:24.405Z,1.03
2018-01-24T10:38:08.549Z,1.10
2018-01-24T10:42:51.878Z,0.80
2018-01-24T10:47:35.191Z,0.70
2018-01-24T10:52:18.502Z,0.90
2018-01-24T10:57:01.844Z,0.80
2018-01-24T11:01:45.130Z,1.00
2018-01-24T11:06:28.476Z,0.90
2018-01-24T11:11:11.830Z,0.80
2018-01-24T11:15:55.173Z,1.67
2018-01-24T11:20:38.506Z,0.90
2018-01-24T11:25:21.793Z,0.73
2018-01-24T11:30:05.092Z,0.70
2018-01-24T11:34:48.433Z,0.83
2018-01-24T11:39:31.779Z,0.80
2018-01-24T11:44:15.150Z,0.70
2018-01-24T11:48:58.476Z,0.57
2018-01-24T11:53:42.584Z,0.43
2018-01-24T11:58:25.901Z,0.80
2018-01-24T12:03:09.227Z,0.60
2018-01-24T12:07:52.582Z,0.67
2018-01-24T12:12:35.893Z,0.50
2018-01-24T12:17:20.098Z,0.50
2018-01-24T12:22:03.419Z,0.30
2018-01-24T12:26:46.744Z,0.50
2018-01-24T12:31:30.038Z,0.50
2018-01-24T12:36:13.412Z,0.60
2018-01-24T12:40:57.524Z,0.60
2018-01-24T12:45:40.858Z,0.63
2018-01-24T12:50:24.158Z,0.60
2018-01-24T12:55:07.594Z,0.60
2018-01-24T12:59:50.994Z,0.57
2018-01-24T13:04:34.333Z,0.70
2018-01-24T13:09:17.680Z,0.60
2018-01-24T13:14:01.002Z,0.60
2018-01-24T13:18:44.357Z,0.50
2018-01-24T13:23:27.682Z,0.60
2018-01-24T13:28:11.079Z,0.40
2018-01-24T13:32:55.145Z,0.40
2018-01-24T13:37:38.479Z,0.50
2018-01-24T13:42:21.848Z,0.40
2018-01-24T13:47:05.193Z,0.57
2018-01-24T13:51:48.519Z,0.50
2018-01-24T13:56:31.832Z,0.40
2018-01-24T14:01:15.165Z,0.50
2018-01-24T14:05:59.329Z,0.50
2018-01-24T14:10:43.387Z,0.50
2018-01-24T14:15:26.713Z,0.53
2018-01-24T14:20:10.029Z,0.47
2018-01-24T14:24:53.403Z,0.40
2018-01-24T14:29:36.758Z,0.43
2018-01-24T14:34:20.094Z,0.40
2018-01-24T14:39:04.190Z,0.50
2018-01-24T14:43:47.540Z,0.60
2018-01-24T14:48:30.858Z,0.60
2018-01-24T14:53:14.305Z,0.70
2018-01-24T14:57:57.674Z,0.80
2018-01-24T15:02:40.990Z,0.87
2018-01-24T15:07:24.344Z,2.10
2018-01-24T15:12:08.434Z,3.67
2018-01-24T15:16:51.782Z,2.53
2018-01-24T15:21:35.908Z,2.40
2018-01-24T15:26:19.192Z,2.50
2018-01-24T15:31:03.292Z,2.83
2018-01-24T15:35:46.631Z,4.20
2018-01-24T15:40:29.960Z,4.30
2018-01-24T15:45:13.299Z,3.50
2018-01-24T15:49:56.712Z,2.87
2018-01-24T15:54:40.809Z,3.40
2018-01-24T15:59:24.141Z,2.50
2018-01-24T16:04:07.558Z,3.60
2018-01-24T16:08:50.883Z,2.80
2018-01-24T16:13:35.031Z,2.30
2018-01-24T16:18:18.342Z,2.20
2018-01-24T16:23:01.642Z,2.80
2018-01-24T16:27:44.948Z,2.63
2018-01-24T16:32:29.050Z,2.30
2018-01-24T16:37:12.404Z,2.50
2018-01-24T16:41:55.735Z,2.43
2018-01-24T16:46:39.068Z,1.93
2018-01-24T16:51:22.384Z,1.80
2018-01-24T16:56:05.685Z,1.30
2018-01-24T17:00:49.035Z,1.20
2018-01-24T17:05:32.373Z,1.20
2018-01-24T17:10:15.703Z,1.20
2018-01-24T17:14:59.034Z,1.30
2018-01-24T17:19:44.144Z,1.83
2018-01-24T17:24:28.287Z,1.70
2018-01-24T17:29:11.639Z,1.50
2018-01-24T17:33:55.743Z,1.70
2018-01-24T17:38:39.079Z,2.10
2018-01-24T17:43:23.089Z,2.00
2018-01-24T17:48:06.405Z,2.17
2018-01-24T17:52:49.726Z,2.20
2018-01-24T17:57:33.110Z,2.17
2018-01-24T18:02:16.418Z,2.10
2018-01-24T18:06:59.727Z,2.57
2018-01-24T18:11:43.066Z,2.33
2018-01-24T18:16:27.158Z,3.20
2018-01-24T18:21:10.682Z,2.80
2018-01-24T18:25:54.024Z,3.07
2018-01-24T18:30:37.362Z,3.07
2018-01-24T18:35:20.864Z,3.17
2018-01-24T18:40:04.190Z,4.33
2018-01-24T18:44:47.524Z,3.43
2018-01-24T18:49:30.814Z,3.20
2018-01-24T18:54:14.122Z,2.80
2018-01-24T18:58:58.409Z,2.33
2018-01-24T19:03:42.495Z,2.53
2018-01-24T19:08:25.864Z,2.40
2018-01-24T19:13:09.452Z,1.93
2018-01-24T19:17:56.711Z,6.33
2018-01-24T19:22:41.263Z,6.87
2018-01-24T19:27:24.766Z,7.70
2018-01-24T19:32:08.312Z,6.47
2018-01-24T19:36:51.835Z,6.60
2018-01-24T19:41:35.285Z,7.40
2018-01-24T19:46:19.476Z,2.20
2018-01-24T19:51:02.852Z,1.80
2018-01-24T19:55:46.961Z,1.70
2018-01-24T20:00:30.286Z,1.90
2018-01-24T20:05:13.621Z,2.40
2018-01-24T20:09:56.960Z,1.90
2018-01-24T20:14:40.264Z,2.07
2018-01-24T20:19:23.612Z,2.20
2018-01-24T20:24:07.774Z,1.90
2018-01-24T20:28:51.126Z,1.90
2018-01-24T20:33:34.469Z,1.93
2018-01-24T20:38:17.745Z,1.73
2018-01-24T20:43:01.064Z,1.90
2018-01-24T20:47:44.366Z,1.70
2018-01-24T20:52:27.695Z,1.80
2018-01-24T20:57:11.254Z,1.70
2018-01-24T21:01:54.609Z,1.30
2018-01-24T21:06:37.941Z,1.50
2018-01-24T21:11:21.237Z,1.70
2018-01-24T21:16:04.567Z,1.40
2018-01-24T21:20:47.865Z,1.40
2018-01-24T21:25:31.191Z,1.10
2018-01-24T21:30:21.377Z,1.20
2018-01-24T21:35:16.529Z,1.03
2018-01-24T21:39:59.875Z,1.20
2018-01-24T21:44:44.040Z,1.10
2018-01-24T21:49:27.364Z,0.90
2018-01-24T21:54:10.670Z,1.03
2018-01-24T21:58:53.995Z,0.90
2018-01-24T22:03:38.148Z,1.00
2018-01-24T22:08:22.229Z,1.20
2018-01-24T22:13:05.572Z,1.50
2018-01-24T22:17:49.680Z,1.20
2018-01-24T22:22:32.993Z,1.00
2018-01-24T22:27:16.335Z,1.03
2018-01-24T22:31:59.688Z,0.90
2018-01-24T22:36:42.992Z,1.20
2018-01-24T22:41:26.346Z,1.03
2018-01-24T22:46:09.678Z,1.00
2018-01-24T22:50:53.004Z,1.10
2018-01-24T22:55:37.105Z,1.30
2018-01-24T23:00:20.507Z,1.00
2018-01-24T23:05:03.785Z,1.17
2018-01-24T23:09:47.122Z,0.97
2018-01-24T23:14:30.594Z,1.10
2018-01-24T23:19:13.890Z,1.10
2018-01-24T23:23:57.297Z,1.20
2018-01-24T23:28:40.544Z,1.00
2018-01-24T23:33:23.819Z,1.10
2018-01-24T23:38:07.138Z,0.90
2018-01-24T23:42:50.548Z,1.03
2018-01-24T23:47:33.878Z,1.30
2018-01-24T23:52:17.213Z,0.97
2018-01-24T23:57:00.584Z,1.00
